createdAt,value
2018-02-05T00:00:27.786Z,102381.94
2018-02-05T00:02:57.941Z,102384.98
2018-02-05T00:05:28.101Z,102383.52
2018-02-05T00:07:58.793Z,102381.03
2018-02-05T00:10:28.721Z,102382.27
2018-02-05T00:12:58.822Z,102387.12
2018-02-05T00:15:28.675Z,102381.94
2018-02-05T00:17:58.469Z,102382.39
2018-02-05T00:20:28.429Z,102379.95
2018-02-05T00:22:59.204Z,102384.60
2018-02-05T00:25:29.157Z,102382.56
2018-02-05T00:27:59.096Z,102387.52
2018-02-05T00:30:29.159Z,102382.47
2018-02-05T00:32:58.956Z,102386.10
2018-02-05T00:35:28.861Z,102387.04
2018-02-05T00:37:58.798Z,102385.73
2018-02-05T00:40:28.680Z,102391.23
2018-02-05T00:42:58.858Z,102389.17
2018-02-05T00:45:28.714Z,102384.78
2018-02-05T00:47:58.579Z,102383.06
2018-02-05T00:50:28.580Z,102390.00
2018-02-05T00:52:58.534Z,102390.98
2018-02-05T00:55:28.798Z,102392.52
2018-02-05T00:57:58.743Z,102384.75
2018-02-05T01:00:28.941Z,102389.17
2018-02-05T01:02:58.717Z,102389.51
2018-02-05T01:05:29.325Z,102394.61
2018-02-05T01:07:59.092Z,102390.56
2018-02-05T01:10:29.010Z,102390.91
2018-02-05T01:12:58.945Z,102397.05
2018-02-05T01:15:28.795Z,102393.38
2018-02-05T01:17:59.591Z,102389.41
2018-02-05T01:20:29.456Z,102390.71
2018-02-05T01:22:59.360Z,102388.42
2018-02-05T01:25:29.241Z,102382.16
2018-02-05T01:27:59.559Z,102388.38
2018-02-05T01:30:29.611Z,102385.87
2018-02-05T01:32:59.527Z,102391.27
2018-02-05T01:35:29.413Z,102388.09
2018-02-05T01:37:59.469Z,102383.17
2018-02-05T01:40:29.429Z,102387.70
2018-02-05T01:42:59.300Z,102383.84
2018-02-05T01:45:29.224Z,102386.09
2018-02-05T01:47:59.813Z,102381.82
2018-02-05T01:50:29.633Z,102385.34
2018-02-05T01:52:59.547Z,102378.10
2018-02-05T01:55:29.534Z,102376.11
2018-02-05T01:57:59.895Z,102375.81
2018-02-05T02:00:29.734Z,102379.64
2018-02-05T02:02:59.504Z,102371.05
2018-02-05T02:05:29.489Z,102374.64
2018-02-05T02:07:59.530Z,102373.59
2018-02-05T02:10:29.505Z,102374.68
2018-02-05T02:13:00.081Z,102370.89
2018-02-05T02:15:29.882Z,102373.67
2018-02-05T02:17:59.797Z,102384.81
2018-02-05T02:20:29.655Z,102375.80
2018-02-05T02:22:59.793Z,102385.05
2018-02-05T02:25:29.671Z,102380.92
2018-02-05T02:27:59.648Z,102383.95
2018-02-05T02:30:29.515Z,102378.15
2018-02-05T02:32:59.720Z,102379.60
2018-02-05T02:35:29.747Z,102385.44
2018-02-05T02:37:59.826Z,102372.86
2018-02-05T02:40:29.667Z,102379.07
2018-02-05T02:42:59.538Z,102382.26
2018-02-05T02:45:30.309Z,102383.66
2018-02-05T02:48:00.224Z,102386.74
2018-02-05T02:50:30.230Z,102385.84
2018-02-05T02:53:00.172Z,102389.30
2018-02-05T02:55:30.108Z,102388.91
2018-02-05T02:58:01.237Z,102391.44
2018-02-05T03:00:31.357Z,102388.89
2018-02-05T03:03:01.151Z,102389.70
2018-02-05T03:05:31.125Z,102389.36
2018-02-05T03:08:01.793Z,102387.76
2018-02-05T03:10:31.735Z,102390.67
2018-02-05T03:13:01.766Z,102390.16
2018-02-05T03:15:31.718Z,102396.58
2018-02-05T03:18:02.242Z,102396.78
2018-02-05T03:20:33.164Z,102394.94
2018-02-05T03:23:03.045Z,102397.09
2018-02-05T03:25:32.853Z,102400.74
2018-02-05T03:28:03.015Z,102398.73
2018-02-05T03:30:32.833Z,102399.20
2018-02-05T03:33:02.831Z,102402.86
2018-02-05T03:35:32.840Z,102411.62
2018-02-05T03:38:02.858Z,102403.88
2018-02-05T03:40:32.662Z,102403.57
2018-02-05T03:43:02.570Z,102406.45
2018-02-05T03:45:32.536Z,102405.06
2018-02-05T03:48:03.304Z,102409.61
2018-02-05T03:50:33.177Z,102407.89
2018-02-05T03:53:03.195Z,102410.69
2018-02-05T03:55:33.178Z,102413.88
2018-02-05T03:58:02.994Z,102411.34
2018-02-05T04:00:32.772Z,102408.48
2018-02-05T04:03:02.659Z,102406.22
2018-02-05T04:05:33.279Z,102405.30
2018-02-05T04:08:03.258Z,102409.45
2018-02-05T04:10:36.092Z,102410.02
2018-02-05T04:13:06.207Z,102416.21
2018-02-05T04:15:37.751Z,102409.23
2018-02-05T04:18:07.713Z,102415.20
2018-02-05T04:20:37.929Z,102414.88
2018-02-05T04:23:07.789Z,102420.97
2018-02-05T04:25:37.826Z,102427.28
2018-02-05T04:28:07.742Z,102429.20
2018-02-05T04:30:37.722Z,102427.90
2018-02-05T04:33:07.533Z,102435.34
2018-02-05T04:35:37.709Z,102431.39
2018-02-05T04:38:07.586Z,102437.25
2018-02-05T04:40:37.740Z,102441.95
2018-02-05T04:43:08.771Z,102443.19
2018-02-05T04:45:38.833Z,102449.28
2018-02-05T04:48:08.701Z,102453.26
2018-02-05T04:50:38.617Z,102457.84
2018-02-05T04:53:10.332Z,102459.23
2018-02-05T04:55:40.257Z,102466.54
2018-02-05T04:58:10.214Z,102473.86
2018-02-05T05:00:40.224Z,102467.31
2018-02-05T05:03:10.084Z,102473.70
2018-02-05T05:05:40.044Z,102469.48
2018-02-05T05:08:09.863Z,102479.97
2018-02-05T05:10:39.740Z,102472.27
2018-02-05T05:13:09.736Z,102466.00
2018-02-05T05:15:39.557Z,102464.06
2018-02-05T05:18:09.381Z,102470.42
2018-02-05T05:20:39.340Z,102466.08
2018-02-05T05:23:09.147Z,102463.22
2018-02-05T05:25:39.232Z,102457.52
2018-02-05T05:28:09.070Z,102456.14
2018-02-05T05:30:38.894Z,102458.34
2018-02-05T05:33:08.876Z,102458.94
2018-02-05T05:35:38.830Z,102460.31
2018-02-05T05:38:08.574Z,102460.53
2018-02-05T05:40:38.662Z,102465.32
2018-02-05T05:43:08.561Z,102467.92
2018-02-05T05:45:38.566Z,102460.81
2018-02-05T05:48:08.450Z,102462.14
2018-02-05T05:50:38.816Z,102465.87
2018-02-05T05:53:08.657Z,102468.07
2018-02-05T05:55:39.387Z,102470.87
2018-02-05T05:58:09.268Z,102467.94
2018-02-05T06:00:39.154Z,102474.36
2018-02-05T06:03:09.406Z,102471.97
2018-02-05T06:05:39.500Z,102472.66
2018-02-05T06:08:09.672Z,102479.12
2018-02-05T06:10:39.515Z,102478.00
2018-02-05T06:13:09.684Z,102492.25
2018-02-05T06:15:39.775Z,102481.39
2018-02-05T06:18:09.794Z,102491.74
2018-02-05T06:20:39.776Z,102493.85
2018-02-05T06:23:09.996Z,102492.95
2018-02-05T06:25:39.908Z,102498.44
2018-02-05T06:28:09.728Z,102489.66
2018-02-05T06:30:39.535Z,102498.48
2018-02-05T06:33:09.572Z,102500.58
2018-02-05T06:35:40.873Z,102504.63
2018-02-05T06:38:10.994Z,102499.62
2018-02-05T06:40:41.249Z,102504.63
2018-02-05T06:43:11.181Z,102495.46
2018-02-05T06:45:41.124Z,102500.26
2018-02-05T06:48:11.046Z,102487.48
2018-02-05T06:52:00.255Z,102497.41
2018-02-05T06:55:49.518Z,102497.40
2018-02-05T06:58:19.728Z,102503.48
2018-02-05T07:00:49.816Z,102502.30
2018-02-05T07:03:19.742Z,102506.22
2018-02-05T07:05:50.420Z,102507.42
2018-02-05T07:08:20.309Z,102513.67
2018-02-05T07:10:50.256Z,102517.19
2018-02-05T07:13:20.107Z,102521.36
2018-02-05T07:15:50.086Z,102527.06
2018-02-05T07:18:19.917Z,102525.66
2018-02-05T07:20:50.039Z,102522.17
2018-02-05T07:23:20.213Z,102525.69
2018-02-05T07:25:50.057Z,102523.91
2018-02-05T07:28:19.945Z,102527.11
2018-02-05T07:30:49.988Z,102524.39
2018-02-05T07:33:21.441Z,102519.03
2018-02-05T07:35:51.787Z,102511.70
2018-02-05T07:38:22.316Z,102514.80
2018-02-05T07:40:52.587Z,102506.17
2018-02-05T07:43:22.896Z,102518.67
2018-02-05T07:45:53.165Z,102519.21
2018-02-05T07:48:23.412Z,102523.45
2018-02-05T07:50:53.750Z,102520.48
2018-02-05T07:53:24.085Z,102517.34
2018-02-05T07:55:54.468Z,102520.38
2018-02-05T07:58:24.657Z,102523.31
2018-02-05T08:00:55.216Z,102531.17
2018-02-05T08:03:25.553Z,102537.19
2018-02-05T08:05:56.025Z,102530.44
2018-02-05T08:08:27.296Z,102528.95
2018-02-05T08:10:57.787Z,102533.58
2018-02-05T08:13:28.113Z,102530.63
2018-02-05T08:15:59.212Z,102533.50
2018-02-05T08:18:29.474Z,102537.78
2018-02-05T08:21:00.312Z,102538.88
2018-02-05T08:23:31.312Z,102532.13
2018-02-05T08:26:01.564Z,102541.27
2018-02-05T08:28:32.875Z,102539.49
2018-02-05T08:31:03.210Z,102526.91
2018-02-05T08:33:33.412Z,102531.56
2018-02-05T08:36:03.852Z,102538.56
2018-02-05T08:38:34.204Z,102529.57
2018-02-05T08:41:04.632Z,102534.67
2018-02-05T08:43:35.380Z,102529.84
2018-02-05T08:46:05.996Z,102526.55
2018-02-05T08:48:36.182Z,102522.95
2018-02-05T08:51:06.548Z,102517.70
2018-02-05T08:53:36.749Z,102520.32
2018-02-05T08:56:07.016Z,102523.11
2018-02-05T08:58:38.121Z,102516.30
2018-02-05T09:01:08.538Z,102519.53
2018-02-05T09:03:39.039Z,102518.52
2018-02-05T09:06:09.514Z,102509.94
2018-02-05T09:08:39.767Z,102509.57
2018-02-05T09:11:10.213Z,102504.91
2018-02-05T09:13:41.239Z,102497.55
2018-02-05T09:16:12.336Z,102501.41
2018-02-05T09:18:42.676Z,102500.66
2018-02-05T09:21:13.213Z,102492.92
2018-02-05T09:23:44.346Z,102500.41
2018-02-05T09:26:14.970Z,102493.80
2018-02-05T09:28:45.656Z,102500.29
2018-02-05T09:31:16.842Z,102493.23
2018-02-05T09:33:47.089Z,102488.34
2018-02-05T09:36:17.274Z,102486.38
2018-02-05T09:38:47.705Z,102493.38
2018-02-05T09:41:18.204Z,102477.30
2018-02-05T09:43:48.740Z,102487.07
2018-02-05T09:46:19.242Z,102474.17
2018-02-05T09:48:49.664Z,102485.45
2018-02-05T09:51:20.088Z,102471.20
2018-02-05T09:53:50.512Z,102481.94
2018-02-05T09:56:21.096Z,102476.16
2018-02-05T09:58:51.722Z,102471.57
2018-02-05T10:01:23.337Z,102471.06
2018-02-05T10:03:53.632Z,102468.21
2018-02-05T10:06:23.987Z,102470.38
2018-02-05T10:08:54.272Z,102473.38
2018-02-05T10:11:24.446Z,102483.00
2018-02-05T10:13:55.591Z,102473.73
2018-02-05T10:16:26.575Z,102466.32
2018-02-05T10:18:56.936Z,102475.81
2018-02-05T10:21:27.122Z,102465.48
2018-02-05T10:23:57.772Z,102460.19
2018-02-05T10:26:28.066Z,102470.87
2018-02-05T10:28:58.383Z,102468.07
2018-02-05T10:31:28.706Z,102464.66
2018-02-05T10:33:58.964Z,102466.17
2018-02-05T10:36:29.218Z,102460.09
2018-02-05T10:38:59.612Z,102461.50
2018-02-05T10:41:29.910Z,102455.86
2018-02-05T10:44:00.346Z,102454.82
2018-02-05T10:46:30.578Z,102455.43
2018-02-05T10:49:01.130Z,102454.69
2018-02-05T10:51:31.230Z,102453.20
2018-02-05T10:54:01.297Z,102450.48
2018-02-05T10:56:32.333Z,102451.91
2018-02-05T10:59:02.501Z,102446.13
2018-02-05T11:01:32.584Z,102452.12
2018-02-05T11:04:03.249Z,102441.69
2018-02-05T11:06:33.336Z,102436.79
2018-02-05T11:09:05.029Z,102436.69
2018-02-05T11:11:34.996Z,102433.92
2018-02-05T11:14:04.904Z,102426.06
2018-02-05T11:16:34.766Z,102430.42
2018-02-05T11:19:04.697Z,102426.59
2018-02-05T11:21:34.652Z,102426.56
2018-02-05T11:24:04.862Z,102420.62
2018-02-05T11:26:34.729Z,102423.86
2018-02-05T11:29:04.731Z,102428.34
2018-02-05T11:31:35.504Z,102422.92
2018-02-05T11:34:06.038Z,102418.17
2018-02-05T11:36:36.455Z,102419.73
2018-02-05T11:39:07.217Z,102416.01
2018-02-05T11:41:37.474Z,102418.35
2018-02-05T11:44:11.032Z,102416.42
2018-02-05T11:46:40.994Z,102407.81
2018-02-05T11:49:11.727Z,102414.52
2018-02-05T11:51:42.433Z,102402.36
2018-02-05T11:54:15.018Z,102402.19
2018-02-05T11:56:45.011Z,102400.74
2018-02-05T11:59:15.251Z,102394.64
2018-02-05T12:01:45.193Z,102398.19
2018-02-05T12:04:15.868Z,102397.22
2018-02-05T12:06:46.142Z,102407.07
2018-02-05T12:09:16.929Z,102398.12
2018-02-05T12:11:46.751Z,102392.98
2018-02-05T12:14:16.684Z,102391.54
2018-02-05T12:16:46.680Z,102396.52
2018-02-05T12:19:16.522Z,102384.03
2018-02-05T12:21:46.558Z,102385.69
2018-02-05T12:24:17.145Z,102388.12
2018-02-05T12:26:47.017Z,102384.28
2018-02-05T12:29:17.647Z,102384.04
2018-02-05T12:31:47.792Z,102379.70
2018-02-05T12:34:17.625Z,102380.12
2018-02-05T12:36:47.504Z,102370.26
2018-02-05T12:39:17.343Z,102365.80
2018-02-05T12:41:47.197Z,102362.13
2018-02-05T12:44:17.119Z,102360.62
2018-02-05T12:46:47.766Z,102355.67
2018-02-05T12:49:17.862Z,102357.40
2018-02-05T12:51:48.041Z,102352.81
2018-02-05T12:54:18.060Z,102348.94
2018-02-05T12:56:48.270Z,102344.90
2018-02-05T12:59:18.337Z,102350.24
2018-02-05T13:01:48.347Z,102354.20
2018-02-05T13:04:18.430Z,102344.77
2018-02-05T13:06:48.461Z,102346.59
2018-02-05T13:09:18.489Z,102340.08
2018-02-05T13:11:48.378Z,102326.22
2018-02-05T13:14:18.321Z,102326.25
2018-02-05T13:16:48.326Z,102320.97
2018-02-05T13:19:18.235Z,102315.48
2018-02-05T13:21:48.090Z,102321.20
2018-02-05T13:24:18.026Z,102318.73
2018-02-05T13:26:48.744Z,102310.39
2018-02-05T13:29:19.817Z,102318.13
2018-02-05T13:31:49.797Z,102307.78
2018-02-05T13:34:19.851Z,102306.61
2018-02-05T13:36:49.993Z,102308.65
2018-02-05T13:39:20.096Z,102308.55
2018-02-05T13:41:50.217Z,102306.53
2018-02-05T13:44:21.304Z,102301.44
2018-02-05T13:46:51.471Z,102303.58
2018-02-05T13:49:21.451Z,102297.73
2018-02-05T13:51:51.442Z,102291.98
2018-02-05T13:54:21.399Z,102296.45
2018-02-05T13:56:52.076Z,102294.52
2018-02-05T13:59:22.002Z,102293.52
2018-02-05T14:01:52.780Z,102296.62
2018-02-05T14:04:23.472Z,102281.92
2018-02-05T14:06:53.299Z,102276.88
2018-02-05T14:09:23.113Z,102283.17
2018-02-05T14:11:53.548Z,102275.50
2018-02-05T14:14:23.450Z,102272.52
2018-02-05T14:16:53.327Z,102274.09
2018-02-05T14:19:23.493Z,102275.52
2018-02-05T14:21:53.630Z,102275.91
2018-02-05T14:24:23.564Z,102267.03
2018-02-05T14:26:54.203Z,102267.73
2018-02-05T14:29:24.833Z,102265.70
2018-02-05T14:31:55.599Z,102256.22
2018-02-05T14:34:25.605Z,102246.17
2018-02-05T14:36:55.588Z,102254.57
2018-02-05T14:39:25.671Z,102256.06
2018-02-05T14:41:56.181Z,102261.14
2018-02-05T14:44:27.185Z,102259.06
2018-02-05T14:46:58.009Z,102256.22
2018-02-05T14:49:27.937Z,102249.22
2018-02-05T14:51:59.114Z,102250.50
2018-02-05T14:54:28.996Z,102250.30
2018-02-05T14:57:00.036Z,102251.19
2018-02-05T14:59:30.096Z,102246.53
2018-02-05T15:02:00.126Z,102241.57
2018-02-05T15:04:30.131Z,102238.34
2018-02-05T15:06:59.986Z,102232.46
2018-02-05T15:09:30.255Z,102229.91
2018-02-05T15:12:00.118Z,102228.19
2018-02-05T15:14:30.275Z,102230.21
2018-02-05T15:17:00.101Z,102225.68
2018-02-05T15:19:29.891Z,102226.87
2018-02-05T15:22:00.595Z,102226.09
2018-02-05T15:24:32.448Z,102218.27
2018-02-05T15:27:02.497Z,102221.50
2018-02-05T15:29:32.542Z,102219.97
2018-02-05T15:32:02.506Z,102219.97
2018-02-05T15:34:32.425Z,102215.44
2018-02-05T15:37:02.243Z,102215.81
2018-02-05T15:39:32.039Z,102210.05
2018-02-05T15:42:02.534Z,102217.55
2018-02-05T15:44:32.430Z,102205.08
2018-02-05T15:47:03.108Z,102217.71
2018-02-05T15:49:33.055Z,102215.02
2018-02-05T15:52:02.842Z,102209.94
2018-02-05T15:54:32.921Z,102210.75
2018-02-05T15:57:02.653Z,102204.45
2018-02-05T15:59:32.717Z,102203.83
2018-02-05T16:02:02.603Z,102200.09
2018-02-05T16:04:32.615Z,102203.54
2018-02-05T16:07:02.638Z,102202.36
2018-02-05T16:09:32.769Z,102196.69
2018-02-05T16:12:02.556Z,102201.12
2018-02-05T16:14:32.894Z,102198.91
2018-02-05T16:17:02.789Z,102193.21
2018-02-05T16:19:34.604Z,102205.05
2018-02-05T16:22:05.440Z,102205.75
2018-02-05T16:24:35.297Z,102200.58
2018-02-05T16:27:05.166Z,102198.10
2018-02-05T16:29:35.111Z,102193.55
2018-02-05T16:32:05.015Z,102197.23
2018-02-05T16:34:35.682Z,102196.45
2018-02-05T16:37:05.545Z,102197.02
2018-02-05T16:39:35.410Z,102189.13
2018-02-05T16:42:05.282Z,102184.69
2018-02-05T16:44:35.934Z,102184.36
2018-02-05T16:47:05.812Z,102190.12
2018-02-05T16:49:36.368Z,102187.38
2018-02-05T16:52:07.046Z,102188.91
2018-02-05T16:54:36.818Z,102183.61
2018-02-05T16:57:06.955Z,102179.59
2018-02-05T16:59:37.246Z,102189.27
2018-02-05T17:02:07.781Z,102186.12
2018-02-05T17:04:39.213Z,102178.72
2018-02-05T17:07:09.292Z,102189.47
2018-02-05T17:09:39.264Z,102183.38
2018-02-05T17:12:10.309Z,102183.39
2018-02-05T17:14:41.265Z,102185.83
2018-02-05T17:17:11.245Z,102194.25
2018-02-05T17:19:41.232Z,102192.18
2018-02-05T17:22:11.192Z,102194.34
2018-02-05T17:24:41.134Z,102196.63
2018-02-05T17:27:11.263Z,102194.99
2018-02-05T17:29:41.195Z,102194.48
2018-02-05T17:32:11.039Z,102194.76
2018-02-05T17:34:40.903Z,102195.80
2018-02-05T17:37:11.921Z,102194.70
2018-02-05T17:39:41.846Z,102197.36
2018-02-05T17:42:12.606Z,102189.84
2018-02-05T17:44:42.629Z,102190.77
2018-02-05T17:47:13.316Z,102183.97
2018-02-05T17:49:43.328Z,102185.83
2018-02-05T17:52:13.296Z,102181.59
2018-02-05T17:54:43.785Z,102187.81
2018-02-05T17:57:15.161Z,102185.59
2018-02-05T17:59:45.721Z,102178.66
2018-02-05T18:02:17.129Z,102177.58
2018-02-05T18:04:47.341Z,102175.06
2018-02-05T18:07:17.213Z,102173.30
2018-02-05T18:09:47.087Z,102175.14
2018-02-05T18:12:17.824Z,102170.05
2018-02-05T18:14:47.795Z,102169.71
2018-02-05T18:17:17.925Z,102175.81
2018-02-05T18:19:47.758Z,102176.29
2018-02-05T18:22:18.376Z,102178.51
2018-02-05T18:24:48.376Z,102175.87
2018-02-05T18:27:18.470Z,102176.73
2018-02-05T18:29:48.295Z,102174.78
2018-02-05T18:32:18.797Z,102171.57
2018-02-05T18:34:48.689Z,102171.34
2018-02-05T18:37:18.678Z,102176.59
2018-02-05T18:39:48.868Z,102170.56
2018-02-05T18:42:18.977Z,102170.91
2018-02-05T18:44:49.823Z,102169.25
2018-02-05T18:47:20.484Z,102164.92
2018-02-05T18:49:50.785Z,102161.35
2018-02-05T18:52:20.714Z,102163.50
2018-02-05T18:54:50.802Z,102159.67
2018-02-05T18:57:21.461Z,102154.01
2018-02-05T18:59:51.333Z,102152.80
2018-02-05T19:02:24.319Z,102153.91
2018-02-05T19:04:54.351Z,102150.26
2018-02-05T19:07:25.080Z,102141.13
2018-02-05T19:09:54.866Z,102150.59
2018-02-05T19:12:25.114Z,102149.04
2018-02-05T19:14:54.984Z,102142.34
2018-02-05T19:17:25.816Z,102148.41
2018-02-05T19:19:55.739Z,102140.36
2018-02-05T19:22:25.638Z,102140.44
2018-02-05T19:24:55.534Z,102140.23
2018-02-05T19:27:26.265Z,102131.86
2018-02-05T19:29:57.257Z,102127.64
2018-02-05T19:32:27.434Z,102133.47
2018-02-05T19:34:58.516Z,102126.54
2018-02-05T19:37:28.906Z,102124.45
2018-02-05T19:39:59.309Z,102120.21
2018-02-05T19:42:29.519Z,102118.12
2018-02-05T19:44:59.818Z,102118.52
2018-02-05T19:47:30.295Z,102117.44
2018-02-05T19:50:00.172Z,102119.39
2018-02-05T19:52:31.116Z,102120.11
2018-02-05T19:55:01.926Z,102113.90
2018-02-05T19:57:32.549Z,102111.26
2018-02-05T20:00:02.625Z,102112.03
2018-02-05T20:02:32.839Z,102115.56
2018-02-05T20:05:03.411Z,102113.23
2018-02-05T20:07:33.555Z,102112.88
2018-02-05T20:10:03.978Z,102113.64
2018-02-05T20:12:34.008Z,102117.54
2018-02-05T20:15:04.425Z,102128.34
2018-02-05T20:17:34.622Z,102119.88
2018-02-05T20:20:04.761Z,102126.17
2018-02-05T20:22:34.744Z,102122.51
2018-02-05T20:25:05.738Z,102123.45
2018-02-05T20:27:35.897Z,102122.28
2018-02-05T20:30:07.580Z,102128.63
2018-02-05T20:32:37.784Z,102133.24
2018-02-05T20:35:08.365Z,102131.30
2018-02-05T20:37:38.754Z,102131.65
2018-02-05T20:40:10.273Z,102130.59
2018-02-05T20:42:40.599Z,102131.23
2018-02-05T20:45:10.888Z,102127.75
2018-02-05T20:47:41.121Z,102129.94
2018-02-05T20:50:11.518Z,102128.03
2018-02-05T20:52:41.965Z,102125.30
2018-02-05T20:55:12.698Z,102127.12
2018-02-05T20:57:43.839Z,102123.13
2018-02-05T21:00:14.098Z,102116.36
2018-02-05T21:02:44.484Z,102109.09
2018-02-05T21:05:16.490Z,102109.03
2018-02-05T21:07:46.663Z,102107.41
2018-02-05T21:10:16.733Z,102098.75
2018-02-05T21:12:47.611Z,102101.13
2018-02-05T21:15:18.278Z,102099.22
2018-02-05T21:17:49.284Z,102097.48
2018-02-05T21:20:19.615Z,102100.00
2018-02-05T21:22:49.518Z,102097.44
2018-02-05T21:25:19.283Z,102095.29
2018-02-05T21:27:49.825Z,102102.13
2018-02-05T21:30:20.021Z,102093.41
2018-02-05T21:32:49.912Z,102096.38
2018-02-05T21:35:19.970Z,102100.40
2018-02-05T21:37:50.243Z,102095.31
2018-02-05T21:40:24.785Z,102094.44
2018-02-05T21:42:54.793Z,102090.15
2018-02-05T21:45:24.862Z,102089.69
2018-02-05T21:47:54.704Z,102081.30
2018-02-05T21:50:24.764Z,102076.69
2018-02-05T21:52:55.709Z,102073.29
2018-02-05T21:55:26.311Z,102074.50
2018-02-05T21:57:56.397Z,102070.91
2018-02-05T22:00:26.589Z,102071.11
2018-02-05T22:02:56.688Z,102072.63
2018-02-05T22:05:27.444Z,102075.09
2018-02-05T22:07:58.177Z,102069.03
2018-02-05T22:10:28.061Z,102069.11
2018-02-05T22:12:58.148Z,102066.05
2018-02-05T22:15:28.154Z,102061.38
2018-02-05T22:17:58.238Z,102064.63
2018-02-05T22:20:28.831Z,102054.98
2018-02-05T22:22:58.726Z,102058.89
2018-02-05T22:25:28.897Z,102061.81
2018-02-05T22:27:59.628Z,102057.50
2018-02-05T22:30:30.309Z,102050.72
2018-02-05T22:33:00.281Z,102050.42
2018-02-05T22:35:31.225Z,102049.33
2018-02-05T22:38:01.952Z,102042.17
2018-02-05T22:40:32.334Z,102042.45
2018-02-05T22:43:02.496Z,102038.45
2018-02-05T22:45:32.918Z,102029.28
2018-02-05T22:48:02.891Z,102028.49
2018-02-05T22:50:33.241Z,102021.96
2018-02-05T22:53:03.346Z,102022.78
2018-02-05T22:55:33.646Z,102018.48
2018-02-05T22:58:03.722Z,102014.53
2018-02-05T23:00:34.014Z,102009.27
2018-02-05T23:03:04.140Z,102008.80
2018-02-05T23:05:34.142Z,102009.53
2018-02-05T23:08:04.152Z,101999.29
2018-02-05T23:10:33.968Z,101999.10
2018-02-05T23:13:03.985Z,101993.34
2018-02-05T23:15:34.138Z,101981.49
2018-02-05T23:18:04.274Z,101980.07
2018-02-05T23:20:34.201Z,101973.05
2018-02-05T23:23:04.118Z,101975.05
2018-02-05T23:25:34.100Z,101969.75
2018-02-05T23:28:03.971Z,101962.95
2018-02-05T23:30:33.909Z,101964.05
2018-02-05T23:33:03.678Z,101964.87
2018-02-05T23:35:33.795Z,101965.05
2018-02-05T23:38:04.677Z,101959.37
2018-02-05T23:40:34.604Z,101957.62
2018-02-05T23:43:04.538Z,101958.75
2018-02-05T23:45:34.543Z,101948.56
2018-02-05T23:48:04.344Z,101938.92
2018-02-05T23:50:34.258Z,101938.05
2018-02-05T23:53:04.140Z,101942.13
2018-02-05T23:55:35.265Z,101933.69
2018-02-05T23:58:05.042Z,101935.84
